Terminal Aerodrome Forecast
Issued by NWS

Home | Current Version | Previous Version | Text Only | Print | Product List | Glossary On
Versions: 1 2 3 4 5 6 7 8 9 10 11 12 13
000
FTUS41 KBTV 270531
TAFSLK
TAF
KSLK 270531Z 2706/2806 VRB02KT P6SM VCSH SCT008 OVC015
      TEMPO 2706/2710 5SM -SHRA BR BKN008
     FM271100 VRB03KT 4SM -SHRA BR OVC012
     FM271500 36005KT P6SM VCSH OVC022
     FM271900 02006KT 5SM -SHRA BR OVC025
     FM272300 03004KT P6SM BKN025 OVC035=

USA.gov is the U.S. government's official web portal to all federal, state and local government web resources and services.